Aviation Digital Data Service (ADDS)

Output produced by METARs form (1227 UTC 15 July 2020)
found at http://www.aviationweather.gov/metar/data/
 
METAR text: LFPG 151200Z 31008KT 270V360 9999 VCSH FEW033TCU SCT040 BKN091 21/13 Q1016 TEMPO -SHRA SCT025TCU
Conditions at: LFPG (CHARLES DE GAULL, FR) observed 1200 UTC 15 July 2020
Temperature: 21.0°C (70°F)
Dewpoint: 13.0°C (55°F) [RH = 60%]
Pressure (altimeter): 30.00 inches Hg (1016.0 mb)
Winds: from the NW (310 degrees) at 9 MPH (8 knots; 4.1 m/s)
Visibility: 6 or more miles (10+ km)
Ceiling: 9100 feet AGL
Clouds: few clouds at 3300 feet AGL
scattered clouds at 4000 feet AGL
broken clouds at 9100 feet AGL
Weather: VCSH  (showers in vicinity)

METAR text: LFPG 151130Z 30010KT 260V330 9999 VCSH FEW028TCU SCT031 BKN090 21/13 Q1016 TEMPO -SHRA SCT025TCU
Conditions at: LFPG (CHARLES DE GAULL, FR) observed 1130 UTC 15 July 2020
Temperature: 21.0°C (70°F)
Dewpoint: 13.0°C (55°F) [RH = 60%]
Pressure (altimeter): 30.00 inches Hg (1016.0 mb)
Winds: from the WNW (300 degrees) at 12 MPH (10 knots; 5.1 m/s)
Visibility: 6 or more miles (10+ km)
Ceiling: 9000 feet AGL
Clouds: few clouds at 2800 feet AGL
scattered clouds at 3100 feet AGL
broken clouds at 9000 feet AGL
Weather: VCSH  (showers in vicinity)

METAR text: LFPG 151100Z 29008KT 240V320 9999 VCSH FEW025TCU SCT028 BKN086 21/13 Q1016 TEMPO -SHRA SCT025TCU
Conditions at: LFPG (CHARLES DE GAULL, FR) observed 1100 UTC 15 July 2020
Temperature: 21.0°C (70°F)
Dewpoint: 13.0°C (55°F) [RH = 60%]
Pressure (altimeter): 30.00 inches Hg (1016.0 mb)
Winds: from the WNW (290 degrees) at 9 MPH (8 knots; 4.1 m/s)
Visibility: 6 or more miles (10+ km)
Ceiling: 8600 feet AGL
Clouds: few clouds at 2500 feet AGL
scattered clouds at 2800 feet AGL
broken clouds at 8600 feet AGL
Weather: VCSH  (showers in vicinity)

METAR text: LFPG 151030Z 26009KT 220V300 9999 VCSH FEW025TCU BKN093 21/13 Q1016 TEMPO -SHRA SCT025TCU
Conditions at: LFPG (CHARLES DE GAULL, FR) observed 1030 UTC 15 July 2020
Temperature: 21.0°C (70°F)
Dewpoint: 13.0°C (55°F) [RH = 60%]
Pressure (altimeter): 30.00 inches Hg (1016.0 mb)
Winds: from the W (260 degrees) at 10 MPH (9 knots; 4.6 m/s)
Visibility: 6 or more miles (10+ km)
Ceiling: 9300 feet AGL
Clouds: few clouds at 2500 feet AGL
broken clouds at 9300 feet AGL
Weather: VCSH  (showers in vicinity)

METAR text: LFPG 151000Z 27005KT 200V350 9999 FEW020TCU SCT022 20/13 Q1016 TEMPO FEW020TCU
Conditions at: LFPG (CHARLES DE GAULL, FR) observed 1000 UTC 15 July 2020
Temperature: 20.0°C (68°F)
Dewpoint: 13.0°C (55°F) [RH = 64%]
Pressure (altimeter): 30.00 inches Hg (1016.0 mb)
Winds: from the W (270 degrees) at 6 MPH (5 knots; 2.6 m/s)
Visibility: 6 or more miles (10+ km)
Ceiling: at least 12,000 feet AGL
Clouds: few clouds at 2000 feet AGL
scattered clouds at 2200 feet AGL
Weather: no significant weather observed at this time

METAR text: LFPG 150930Z 31004KT 230V360 9999 SCT020 SCT066 BKN090 19/13 Q1016 TEMPO FEW020TCU
Conditions at: LFPG (CHARLES DE GAULL, FR) observed 0930 UTC 15 July 2020
Temperature: 19.0°C (66°F)
Dewpoint: 13.0°C (55°F) [RH = 68%]
Pressure (altimeter): 30.00 inches Hg (1016.0 mb)
Winds: from the NW (310 degrees) at 5 MPH (4 knots; 2.1 m/s)
Visibility: 6 or more miles (10+ km)
Ceiling: 9000 feet AGL
Clouds: scattered clouds at 2000 feet AGL
scattered clouds at 6600 feet AGL
broken clouds at 9000 feet AGL
Weather: no significant weather observed at this time

METAR text: LFPG 150900Z 30006KT 270V350 9999 SCT017 SCT066 BKN093 18/13 Q1016 BECMG SCT012
Conditions at: LFPG (CHARLES DE GAULL, FR) observed 0900 UTC 15 July 2020
Temperature: 18.0°C (64°F)
Dewpoint: 13.0°C (55°F) [RH = 73%]
Pressure (altimeter): 30.00 inches Hg (1016.0 mb)
Winds: from the WNW (300 degrees) at 7 MPH (6 knots; 3.1 m/s)
Visibility: 6 or more miles (10+ km)
Ceiling: 9300 feet AGL
Clouds: scattered clouds at 1700 feet AGL
scattered clouds at 6600 feet AGL
broken clouds at 9300 feet AGL
Weather: no significant weather observed at this time

METAR text: LFPG 150830Z 28007KT 260V320 9999 BKN015 SCT034 BKN096 18/14 Q1016 BECMG SCT012
Conditions at: LFPG (CHARLES DE GAULL, FR) observed 0830 UTC 15 July 2020
Temperature: 18.0°C (64°F)
Dewpoint: 14.0°C (57°F) [RH = 77%]
Pressure (altimeter): 30.00 inches Hg (1016.0 mb)
Winds: from the W (280 degrees) at 8 MPH (7 knots; 3.6 m/s)
Visibility: 6 or more miles (10+ km)
Ceiling: 1500 feet AGL
Clouds: broken clouds at 1500 feet AGL
scattered clouds at 3400 feet AGL
broken clouds at 9600 feet AGL
Weather: no significant weather observed at this time

METAR text: LFPG 150800Z 28007KT 9999 BKN012 17/14 Q1016 BECMG SCT012
Conditions at: LFPG (CHARLES DE GAULL, FR) observed 0800 UTC 15 July 2020
Temperature: 17.0°C (63°F)
Dewpoint: 14.0°C (57°F) [RH = 82%]
Pressure (altimeter): 30.00 inches Hg (1016.0 mb)
Winds: from the W (280 degrees) at 8 MPH (7 knots; 3.6 m/s)
Visibility: 6 or more miles (10+ km)
Ceiling: 1200 feet AGL
Clouds: broken clouds at 1200 feet AGL
Weather: no significant weather observed at this time

METAR text: LFPG 150730Z 28006KT 260V320 9999 BKN011 BKN110 16/14 Q1015 BECMG SCT012
Conditions at: LFPG (CHARLES DE GAULL, FR) observed 0730 UTC 15 July 2020
Temperature: 16.0°C (61°F)
Dewpoint: 14.0°C (57°F) [RH = 88%]
Pressure (altimeter): 29.97 inches Hg (1015.0 mb)
Winds: from the W (280 degrees) at 7 MPH (6 knots; 3.1 m/s)
Visibility: 6 or more miles (10+ km)
Ceiling: 1100 feet AGL
Clouds: broken clouds at 1100 feet AGL
broken clouds at 11000 feet AGL
Weather: no significant weather observed at this time

METAR text: LFPG 150700Z 28008KT 9999 BKN008 SCT034 BKN100 16/15 Q1015 TEMPO BKN008
Conditions at: LFPG (CHARLES DE GAULL, FR) observed 0700 UTC 15 July 2020
Temperature: 16.0°C (61°F)
Dewpoint: 15.0°C (59°F) [RH = 94%]
Pressure (altimeter): 29.97 inches Hg (1015.0 mb)
Winds: from the W (280 degrees) at 9 MPH (8 knots; 4.1 m/s)
Visibility: 6 or more miles (10+ km)
Ceiling: 800 feet AGL
Clouds: broken clouds at 800 feet AGL
scattered clouds at 3400 feet AGL
broken clouds at 10000 feet AGL
Weather: no significant weather observed at this time

METAR text: LFPG 150630Z 25006KT 9999 BKN008 SCT046 BKN120 16/14 Q1015 TEMPO BKN008
Conditions at: LFPG (CHARLES DE GAULL, FR) observed 0630 UTC 15 July 2020
Temperature: 16.0°C (61°F)
Dewpoint: 14.0°C (57°F) [RH = 88%]
Pressure (altimeter): 29.97 inches Hg (1015.0 mb)
Winds: from the WSW (250 degrees) at 7 MPH (6 knots; 3.1 m/s)
Visibility: 6 or more miles (10+ km)
Ceiling: 800 feet AGL
Clouds: broken clouds at 800 feet AGL
scattered clouds at 4600 feet AGL
broken clouds at 12000 feet AGL
Weather: no significant weather observed at this time

METAR text: LFPG 150600Z 24004KT 9999 FEW015 SCT023 BKN096 15/14 Q1015 NOSIG
Conditions at: LFPG (CHARLES DE GAULL, FR) observed 0600 UTC 15 July 2020
Temperature: 15.0°C (59°F)
Dewpoint: 14.0°C (57°F) [RH = 94%]
Pressure (altimeter): 29.97 inches Hg (1015.0 mb)
Winds: from the WSW (240 degrees) at 5 MPH (4 knots; 2.1 m/s)
Visibility: 6 or more miles (10+ km)
Ceiling: 9600 feet AGL
Clouds: few clouds at 1500 feet AGL
scattered clouds at 2300 feet AGL
broken clouds at 9600 feet AGL
Weather: no significant weather observed at this time

METAR text: LFPG 150530Z 25003KT 9999 FEW009 SCT021 BKN080 15/14 Q1015 NOSIG
Conditions at: LFPG (CHARLES DE GAULL, FR) observed 0530 UTC 15 July 2020
Temperature: 15.0°C (59°F)
Dewpoint: 14.0°C (57°F) [RH = 94%]
Pressure (altimeter): 29.97 inches Hg (1015.0 mb)
Winds: from the WSW (250 degrees) at 3 MPH (3 knots; 1.5 m/s)
Visibility: 6 or more miles (10+ km)
Ceiling: 8000 feet AGL
Clouds: few clouds at 900 feet AGL
scattered clouds at 2100 feet AGL
broken clouds at 8000 feet AGL
Weather: no significant weather observed at this time

METAR text: LFPG 150500Z 27003KT 9999 -RA FEW026 OVC060 15/14 Q1015 NOSIG
Conditions at: LFPG (CHARLES DE GAULL, FR) observed 0500 UTC 15 July 2020
Temperature: 15.0°C (59°F)
Dewpoint: 14.0°C (57°F) [RH = 94%]
Pressure (altimeter): 29.97 inches Hg (1015.0 mb)
Winds: from the W (270 degrees) at 3 MPH (3 knots; 1.5 m/s)
Visibility: 6 or more miles (10+ km)
Ceiling: 6000 feet AGL
Clouds: few clouds at 2600 feet AGL
overcast cloud deck at 6000 feet AGL
Weather: -RA  (light rain)

METAR text: LFPG 150430Z 28002KT 6000 -RA FEW040 OVC060 15/14 Q1015 NOSIG
Conditions at: LFPG (CHARLES DE GAULL, FR) observed 0430 UTC 15 July 2020
Temperature: 15.0°C (59°F)
Dewpoint: 14.0°C (57°F) [RH = 94%]
Pressure (altimeter): 29.97 inches Hg (1015.0 mb)
Winds: from the W (280 degrees) at 2 MPH (2 knots; 1.0 m/s)
Visibility: 4 miles ( 6 km)
Ceiling: 6000 feet AGL
Clouds: few clouds at 4000 feet AGL
overcast cloud deck at 6000 feet AGL
Weather: -RA  (light rain)

METAR text: LFPG 150400Z 28004KT 6000 -RA FEW019 BKN044 15/14 Q1015 NOSIG
Conditions at: LFPG (CHARLES DE GAULL, FR) observed 0400 UTC 15 July 2020
Temperature: 15.0°C (59°F)
Dewpoint: 14.0°C (57°F) [RH = 94%]
Pressure (altimeter): 29.97 inches Hg (1015.0 mb)
Winds: from the W (280 degrees) at 5 MPH (4 knots; 2.1 m/s)
Visibility: 4 miles ( 6 km)
Ceiling: 4400 feet AGL
Clouds: few clouds at 1900 feet AGL
broken clouds at 4400 feet AGL
Weather: -RA  (light rain)

METAR text: LFPG 150330Z 28006KT 8000 -SHRA BKN032 BKN053 16/14 Q1015 NOSIG
Conditions at: LFPG (CHARLES DE GAULL, FR) observed 0330 UTC 15 July 2020
Temperature: 16.0°C (61°F)
Dewpoint: 14.0°C (57°F) [RH = 88%]
Pressure (altimeter): 29.97 inches Hg (1015.0 mb)
Winds: from the W (280 degrees) at 7 MPH (6 knots; 3.1 m/s)
Visibility: 5 miles ( 8 km)
Ceiling: 3200 feet AGL
Clouds: broken clouds at 3200 feet AGL
broken clouds at 5300 feet AGL
Weather: -SHRA  (light rain showers)

METAR text: LFPG 150300Z 29003KT 9999 SCT046 BKN071 17/13 Q1014 NOSIG
Conditions at: LFPG (CHARLES DE GAULL, FR) observed 0300 UTC 15 July 2020
Temperature: 17.0°C (63°F)
Dewpoint: 13.0°C (55°F) [RH = 77%]
Pressure (altimeter): 29.94 inches Hg (1014.0 mb)
Winds: from the WNW (290 degrees) at 3 MPH (3 knots; 1.5 m/s)
Visibility: 6 or more miles (10+ km)
Ceiling: 7100 feet AGL
Clouds: scattered clouds at 4600 feet AGL
broken clouds at 7100 feet AGL
Weather: no significant weather observed at this time

METAR text: LFPG 150230Z 00000KT 9999 -SHRA SCT035 BKN082 17/13 Q1015 NOSIG
Conditions at: LFPG (CHARLES DE GAULL, FR) observed 0230 UTC 15 July 2020
Temperature: 17.0°C (63°F)
Dewpoint: 13.0°C (55°F) [RH = 77%]
Pressure (altimeter): 29.97 inches Hg (1015.0 mb)
Winds: calm
Visibility: 6 or more miles (10+ km)
Ceiling: 8200 feet AGL
Clouds: scattered clouds at 3500 feet AGL
broken clouds at 8200 feet AGL
Weather: -SHRA  (light rain showers)

METAR text: LFPG 150200Z 00000KT 9999 SCT032 BKN083 17/12 Q1015 NOSIG
Conditions at: LFPG (CHARLES DE GAULL, FR) observed 0200 UTC 15 July 2020
Temperature: 17.0°C (63°F)
Dewpoint: 12.0°C (54°F) [RH = 72%]
Pressure (altimeter): 29.97 inches Hg (1015.0 mb)
Winds: calm
Visibility: 6 or more miles (10+ km)
Ceiling: 8300 feet AGL
Clouds: scattered clouds at 3200 feet AGL
broken clouds at 8300 feet AGL
Weather: no significant weather observed at this time

METAR text: LFPG 150130Z 36002KT 9999 SCT032 BKN096 17/12 Q1015 NOSIG
Conditions at: LFPG (CHARLES DE GAULL, FR) observed 0130 UTC 15 July 2020
Temperature: 17.0°C (63°F)
Dewpoint: 12.0°C (54°F) [RH = 72%]
Pressure (altimeter): 29.97 inches Hg (1015.0 mb)
Winds: from the N (360 degrees) at 2 MPH (2 knots; 1.0 m/s)
Visibility: 6 or more miles (10+ km)
Ceiling: 9600 feet AGL
Clouds: scattered clouds at 3200 feet AGL
broken clouds at 9600 feet AGL
Weather: no significant weather observed at this time

METAR text: LFPG 150100Z 01003KT CAVOK 17/12 Q1015 NOSIG
Conditions at: LFPG (CHARLES DE GAULL, FR) observed 0100 UTC 15 July 2020
Temperature: 17.0°C (63°F)
Dewpoint: 12.0°C (54°F) [RH = 72%]
Pressure (altimeter): 29.97 inches Hg (1015.0 mb)
Winds: from the N (10 degrees) at 3 MPH (3 knots; 1.5 m/s)
Visibility: 6 or more miles (10+ km)
Ceiling: ceiling and visibility are OK
Clouds: unknown
Weather: no significant weather observed at this time

METAR text: LFPG 150030Z 35004KT 9999 BKN048 BKN130 17/12 Q1015 NOSIG
Conditions at: LFPG (CHARLES DE GAULL, FR) observed 0030 UTC 15 July 2020
Temperature: 17.0°C (63°F)
Dewpoint: 12.0°C (54°F) [RH = 72%]
Pressure (altimeter): 29.97 inches Hg (1015.0 mb)
Winds: from the N (350 degrees) at 5 MPH (4 knots; 2.1 m/s)
Visibility: 6 or more miles (10+ km)
Ceiling: 4800 feet AGL
Clouds: broken clouds at 4800 feet AGL
broken clouds at 13000 feet AGL
Weather: no significant weather observed at this time

METAR text: LFPG 150000Z VRB02KT CAVOK 17/12 Q1015 NOSIG
Conditions at: LFPG (CHARLES DE GAULL, FR) observed 0000 UTC 15 July 2020
Temperature: 17.0°C (63°F)
Dewpoint: 12.0°C (54°F) [RH = 72%]
Pressure (altimeter): 29.97 inches Hg (1015.0 mb)
Winds: variable direction winds at 2 MPH (2 knots; 1.0 m/s)
Visibility: 6 or more miles (10+ km)
Ceiling: ceiling and visibility are OK
Clouds: unknown
Weather: no significant weather observed at this time

METAR text: LFPG 142330Z 01003KT CAVOK 17/12 Q1015 NOSIG
Conditions at: LFPG (CHARLES DE GAULL, FR) observed 2330 UTC 14 July 2020
Temperature: 17.0°C (63°F)
Dewpoint: 12.0°C (54°F) [RH = 72%]
Pressure (altimeter): 29.97 inches Hg (1015.0 mb)
Winds: from the N (10 degrees) at 3 MPH (3 knots; 1.5 m/s)
Visibility: 6 or more miles (10+ km)
Ceiling: ceiling and visibility are OK
Clouds: unknown
Weather: no significant weather observed at this time

METAR text: LFPG 142300Z 04005KT CAVOK 17/12 Q1015 NOSIG
Conditions at: LFPG (CHARLES DE GAULL, FR) observed 2300 UTC 14 July 2020
Temperature: 17.0°C (63°F)
Dewpoint: 12.0°C (54°F) [RH = 72%]
Pressure (altimeter): 29.97 inches Hg (1015.0 mb)
Winds: from the NE (40 degrees) at 6 MPH (5 knots; 2.6 m/s)
Visibility: 6 or more miles (10+ km)
Ceiling: ceiling and visibility are OK
Clouds: unknown
Weather: no significant weather observed at this time

METAR text: LFPG 142230Z 04004KT CAVOK 17/12 Q1016 NOSIG
Conditions at: LFPG (CHARLES DE GAULL, FR) observed 2230 UTC 14 July 2020
Temperature: 17.0°C (63°F)
Dewpoint: 12.0°C (54°F) [RH = 72%]
Pressure (altimeter): 30.00 inches Hg (1016.0 mb)
Winds: from the NE (40 degrees) at 5 MPH (4 knots; 2.1 m/s)
Visibility: 6 or more miles (10+ km)
Ceiling: ceiling and visibility are OK
Clouds: unknown
Weather: no significant weather observed at this time

METAR text: LFPG 142200Z 02004KT CAVOK 18/12 Q1016 NOSIG
Conditions at: LFPG (CHARLES DE GAULL, FR) observed 2200 UTC 14 July 2020
Temperature: 18.0°C (64°F)
Dewpoint: 12.0°C (54°F) [RH = 68%]
Pressure (altimeter): 30.00 inches Hg (1016.0 mb)
Winds: from the NNE (20 degrees) at 5 MPH (4 knots; 2.1 m/s)
Visibility: 6 or more miles (10+ km)
Ceiling: ceiling and visibility are OK
Clouds: unknown
Weather: no significant weather observed at this time

METAR text: LFPG 142130Z 02005KT CAVOK 18/11 Q1015 NOSIG
Conditions at: LFPG (CHARLES DE GAULL, FR) observed 2130 UTC 14 July 2020
Temperature: 18.0°C (64°F)
Dewpoint: 11.0°C (52°F) [RH = 64%]
Pressure (altimeter): 29.97 inches Hg (1015.0 mb)
Winds: from the NNE (20 degrees) at 6 MPH (5 knots; 2.6 m/s)
Visibility: 6 or more miles (10+ km)
Ceiling: ceiling and visibility are OK
Clouds: unknown
Weather: no significant weather observed at this time

METAR text: LFPG 142100Z 36006KT CAVOK 18/11 Q1015 NOSIG
Conditions at: LFPG (CHARLES DE GAULL, FR) observed 2100 UTC 14 July 2020
Temperature: 18.0°C (64°F)
Dewpoint: 11.0°C (52°F) [RH = 64%]
Pressure (altimeter): 29.97 inches Hg (1015.0 mb)
Winds: from the N (360 degrees) at 7 MPH (6 knots; 3.1 m/s)
Visibility: 6 or more miles (10+ km)
Ceiling: ceiling and visibility are OK
Clouds: unknown
Weather: no significant weather observed at this time

METAR text: LFPG 142030Z 36006KT CAVOK 19/11 Q1015 NOSIG
Conditions at: LFPG (CHARLES DE GAULL, FR) observed 2030 UTC 14 July 2020
Temperature: 19.0°C (66°F)
Dewpoint: 11.0°C (52°F) [RH = 60%]
Pressure (altimeter): 29.97 inches Hg (1015.0 mb)
Winds: from the N (360 degrees) at 7 MPH (6 knots; 3.1 m/s)
Visibility: 6 or more miles (10+ km)
Ceiling: ceiling and visibility are OK
Clouds: unknown
Weather: no significant weather observed at this time

METAR text: LFPG 142000Z 35005KT CAVOK 19/12 Q1015 NOSIG
Conditions at: LFPG (CHARLES DE GAULL, FR) observed 2000 UTC 14 July 2020
Temperature: 19.0°C (66°F)
Dewpoint: 12.0°C (54°F) [RH = 64%]
Pressure (altimeter): 29.97 inches Hg (1015.0 mb)
Winds: from the N (350 degrees) at 6 MPH (5 knots; 2.6 m/s)
Visibility: 6 or more miles (10+ km)
Ceiling: ceiling and visibility are OK
Clouds: unknown
Weather: no significant weather observed at this time

METAR text: LFPG 141930Z 34008KT CAVOK 20/12 Q1015 NOSIG
Conditions at: LFPG (CHARLES DE GAULL, FR) observed 1930 UTC 14 July 2020
Temperature: 20.0°C (68°F)
Dewpoint: 12.0°C (54°F) [RH = 60%]
Pressure (altimeter): 29.97 inches Hg (1015.0 mb)
Winds: from the NNW (340 degrees) at 9 MPH (8 knots; 4.1 m/s)
Visibility: 6 or more miles (10+ km)
Ceiling: ceiling and visibility are OK
Clouds: unknown
Weather: no significant weather observed at this time

METAR text: LFPG 141900Z 33005KT CAVOK 20/12 Q1015 NOSIG
Conditions at: LFPG (CHARLES DE GAULL, FR) observed 1900 UTC 14 July 2020
Temperature: 20.0°C (68°F)
Dewpoint: 12.0°C (54°F) [RH = 60%]
Pressure (altimeter): 29.97 inches Hg (1015.0 mb)
Winds: from the NNW (330 degrees) at 6 MPH (5 knots; 2.6 m/s)
Visibility: 6 or more miles (10+ km)
Ceiling: ceiling and visibility are OK
Clouds: unknown
Weather: no significant weather observed at this time

METAR text: LFPG 141830Z 33008KT CAVOK 21/11 Q1015 NOSIG
Conditions at: LFPG (CHARLES DE GAULL, FR) observed 1830 UTC 14 July 2020
Temperature: 21.0°C (70°F)
Dewpoint: 11.0°C (52°F) [RH = 53%]
Pressure (altimeter): 29.97 inches Hg (1015.0 mb)
Winds: from the NNW (330 degrees) at 9 MPH (8 knots; 4.1 m/s)
Visibility: 6 or more miles (10+ km)
Ceiling: ceiling and visibility are OK
Clouds: unknown
Weather: no significant weather observed at this time

METAR text: LFPG 141800Z 32010KT 290V350 CAVOK 21/11 Q1015 NOSIG
Conditions at: LFPG (CHARLES DE GAULL, FR) observed 1800 UTC 14 July 2020
Temperature: 21.0°C (70°F)
Dewpoint: 11.0°C (52°F) [RH = 53%]
Pressure (altimeter): 29.97 inches Hg (1015.0 mb)
Winds: from the NW (320 degrees) at 12 MPH (10 knots; 5.1 m/s)
Visibility: 6 or more miles (10+ km)
Ceiling: ceiling and visibility are OK
Clouds: unknown
Weather: no significant weather observed at this time

METAR text: LFPG 141730Z 30010KT 270V340 9999 FEW038 SCT073 OVC230 22/12 Q1015 NOSIG
Conditions at: LFPG (CHARLES DE GAULL, FR) observed 1730 UTC 14 July 2020
Temperature: 22.0°C (72°F)
Dewpoint: 12.0°C (54°F) [RH = 53%]
Pressure (altimeter): 29.97 inches Hg (1015.0 mb)
Winds: from the WNW (300 degrees) at 12 MPH (10 knots; 5.1 m/s)
Visibility: 6 or more miles (10+ km)
Ceiling: 23000 feet AGL
Clouds: few clouds at 3800 feet AGL
scattered clouds at 7300 feet AGL
overcast cloud deck at 23000 feet AGL
Weather: no significant weather observed at this time

METAR text: LFPG 141700Z 31009KT 280V350 9999 FEW033 SCT066 OVC260 22/13 Q1015 NOSIG
Conditions at: LFPG (CHARLES DE GAULL, FR) observed 1700 UTC 14 July 2020
Temperature: 22.0°C (72°F)
Dewpoint: 13.0°C (55°F) [RH = 57%]
Pressure (altimeter): 29.97 inches Hg (1015.0 mb)
Winds: from the NW (310 degrees) at 10 MPH (9 knots; 4.6 m/s)
Visibility: 6 or more miles (10+ km)
Ceiling: 26000 feet AGL
Clouds: few clouds at 3300 feet AGL
scattered clouds at 6600 feet AGL
overcast cloud deck at 26000 feet AGL
Weather: no significant weather observed at this time

METAR text: LFPG 141630Z 29008KT 240V320 9999 FEW032 SCT034 21/13 Q1015 NOSIG
Conditions at: LFPG (CHARLES DE GAULL, FR) observed 1630 UTC 14 July 2020
Temperature: 21.0°C (70°F)
Dewpoint: 13.0°C (55°F) [RH = 60%]
Pressure (altimeter): 29.97 inches Hg (1015.0 mb)
Winds: from the WNW (290 degrees) at 9 MPH (8 knots; 4.1 m/s)
Visibility: 6 or more miles (10+ km)
Ceiling: at least 12,000 feet AGL
Clouds: few clouds at 3200 feet AGL
scattered clouds at 3400 feet AGL
Weather: no significant weather observed at this time

METAR text: LFPG 141600Z 26008KT 230V290 9999 FEW032 SCT053 22/13 Q1015 NOSIG
Conditions at: LFPG (CHARLES DE GAULL, FR) observed 1600 UTC 14 July 2020
Temperature: 22.0°C (72°F)
Dewpoint: 13.0°C (55°F) [RH = 57%]
Pressure (altimeter): 29.97 inches Hg (1015.0 mb)
Winds: from the W (260 degrees) at 9 MPH (8 knots; 4.1 m/s)
Visibility: 6 or more miles (10+ km)
Ceiling: at least 12,000 feet AGL
Clouds: few clouds at 3200 feet AGL
scattered clouds at 5300 feet AGL
Weather: no significant weather observed at this time

METAR text: LFPG 141530Z 27010KT 9999 SCT040 SCT046 21/12 Q1016 NOSIG
Conditions at: LFPG (CHARLES DE GAULL, FR) observed 1530 UTC 14 July 2020
Temperature: 21.0°C (70°F)
Dewpoint: 12.0°C (54°F) [RH = 56%]
Pressure (altimeter): 30.00 inches Hg (1016.0 mb)
Winds: from the W (270 degrees) at 12 MPH (10 knots; 5.1 m/s)
Visibility: 6 or more miles (10+ km)
Ceiling: at least 12,000 feet AGL
Clouds: scattered clouds at 4000 feet AGL
scattered clouds at 4600 feet AGL
Weather: no significant weather observed at this time

METAR text: LFPG 141500Z 27010KT 9999 FEW030 SCT033 21/13 Q1016 NOSIG
Conditions at: LFPG (CHARLES DE GAULL, FR) observed 1500 UTC 14 July 2020
Temperature: 21.0°C (70°F)
Dewpoint: 13.0°C (55°F) [RH = 60%]
Pressure (altimeter): 30.00 inches Hg (1016.0 mb)
Winds: from the W (270 degrees) at 12 MPH (10 knots; 5.1 m/s)
Visibility: 6 or more miles (10+ km)
Ceiling: at least 12,000 feet AGL
Clouds: few clouds at 3000 feet AGL
scattered clouds at 3300 feet AGL
Weather: no significant weather observed at this time

METAR text: LFPG 141430Z 29011KT 250V320 9999 SCT030 SCT053 22/13 Q1016 NOSIG
Conditions at: LFPG (CHARLES DE GAULL, FR) observed 1430 UTC 14 July 2020
Temperature: 22.0°C (72°F)
Dewpoint: 13.0°C (55°F) [RH = 57%]
Pressure (altimeter): 30.00 inches Hg (1016.0 mb)
Winds: from the WNW (290 degrees) at 13 MPH (11 knots; 5.7 m/s)
Visibility: 6 or more miles (10+ km)
Ceiling: at least 12,000 feet AGL
Clouds: scattered clouds at 3000 feet AGL
scattered clouds at 5300 feet AGL
Weather: no significant weather observed at this time

METAR text: LFPG 141400Z 27008KT 230V300 9999 SCT030 SCT053 BKN110 22/13 Q1016 NOSIG
Conditions at: LFPG (CHARLES DE GAULL, FR) observed 1400 UTC 14 July 2020
Temperature: 22.0°C (72°F)
Dewpoint: 13.0°C (55°F) [RH = 57%]
Pressure (altimeter): 30.00 inches Hg (1016.0 mb)
Winds: from the W (270 degrees) at 9 MPH (8 knots; 4.1 m/s)
Visibility: 6 or more miles (10+ km)
Ceiling: 11000 feet AGL
Clouds: scattered clouds at 3000 feet AGL
scattered clouds at 5300 feet AGL
broken clouds at 11000 feet AGL
Weather: no significant weather observed at this time

METAR text: LFPG 141330Z 25009KT 190V350 9999 SCT025 SCT033 BKN110 22/14 Q1016 NOSIG
Conditions at: LFPG (CHARLES DE GAULL, FR) observed 1330 UTC 14 July 2020
Temperature: 22.0°C (72°F)
Dewpoint: 14.0°C (57°F) [RH = 60%]
Pressure (altimeter): 30.00 inches Hg (1016.0 mb)
Winds: from the WSW (250 degrees) at 10 MPH (9 knots; 4.6 m/s)
Visibility: 6 or more miles (10+ km)
Ceiling: 11000 feet AGL
Clouds: scattered clouds at 2500 feet AGL
scattered clouds at 3300 feet AGL
broken clouds at 11000 feet AGL
Weather: no significant weather observed at this time

METAR text: LFPG 141300Z 28009KT 250V310 9999 BKN023 SCT030 21/14 Q1017 NOSIG
Conditions at: LFPG (CHARLES DE GAULL, FR) observed 1300 UTC 14 July 2020
Temperature: 21.0°C (70°F)
Dewpoint: 14.0°C (57°F) [RH = 64%]
Pressure (altimeter): 30.03 inches Hg (1017.0 mb)
Winds: from the W (280 degrees) at 10 MPH (9 knots; 4.6 m/s)
Visibility: 6 or more miles (10+ km)
Ceiling: 2300 feet AGL
Clouds: broken clouds at 2300 feet AGL
scattered clouds at 3000 feet AGL
Weather: no significant weather observed at this time

METAR text: LFPG 141230Z 28010KT 240V310 9999 BKN020 SCT030 20/14 Q1017 NOSIG
Conditions at: LFPG (CHARLES DE GAULL, FR) observed 1230 UTC 14 July 2020
Temperature: 20.0°C (68°F)
Dewpoint: 14.0°C (57°F) [RH = 68%]
Pressure (altimeter): 30.03 inches Hg (1017.0 mb)
Winds: from the W (280 degrees) at 12 MPH (10 knots; 5.1 m/s)
Visibility: 6 or more miles (10+ km)
Ceiling: 2000 feet AGL
Clouds: broken clouds at 2000 feet AGL
scattered clouds at 3000 feet AGL
Weather: no significant weather observed at this time

METAR text: LFPG 141200Z 24010KT 210V020 9999 BKN020 SCT040 20/14 Q1017 NOSIG
Conditions at: LFPG (CHARLES DE GAULL, FR) observed 1200 UTC 14 July 2020
Temperature: 20.0°C (68°F)
Dewpoint: 14.0°C (57°F) [RH = 68%]
Pressure (altimeter): 30.03 inches Hg (1017.0 mb)
Winds: from the WSW (240 degrees) at 12 MPH (10 knots; 5.1 m/s)
Visibility: 6 or more miles (10+ km)
Ceiling: 2000 feet AGL
Clouds: broken clouds at 2000 feet AGL
scattered clouds at 4000 feet AGL
Weather: no significant weather observed at this time

METAR text: LFPG 141130Z 24010KT 210V280 9999 SCT020 BKN030 19/13 Q1017 NOSIG
Conditions at: LFPG (CHARLES DE GAULL, FR) observed 1130 UTC 14 July 2020
Temperature: 19.0°C (66°F)
Dewpoint: 13.0°C (55°F) [RH = 68%]
Pressure (altimeter): 30.03 inches Hg (1017.0 mb)
Winds: from the WSW (240 degrees) at 12 MPH (10 knots; 5.1 m/s)
Visibility: 6 or more miles (10+ km)
Ceiling: 3000 feet AGL
Clouds: scattered clouds at 2000 feet AGL
broken clouds at 3000 feet AGL
Weather: no significant weather observed at this time

METAR text: LFPG 141100Z 26006KT 240V310 9999 SCT020 BKN033 18/13 Q1017 NOSIG
Conditions at: LFPG (CHARLES DE GAULL, FR) observed 1100 UTC 14 July 2020
Temperature: 18.0°C (64°F)
Dewpoint: 13.0°C (55°F) [RH = 73%]
Pressure (altimeter): 30.03 inches Hg (1017.0 mb)
Winds: from the W (260 degrees) at 7 MPH (6 knots; 3.1 m/s)
Visibility: 6 or more miles (10+ km)
Ceiling: 3300 feet AGL
Clouds: scattered clouds at 2000 feet AGL
broken clouds at 3300 feet AGL
Weather: no significant weather observed at this time

METAR text: LFPG 141030Z 25010KT 9999 BKN021 BKN036 18/12 Q1018 TEMPO 4000 -RA BKN015
Conditions at: LFPG (CHARLES DE GAULL, FR) observed 1030 UTC 14 July 2020
Temperature: 18.0°C (64°F)
Dewpoint: 12.0°C (54°F) [RH = 68%]
Pressure (altimeter): 30.06 inches Hg (1018.0 mb)
Winds: from the WSW (250 degrees) at 12 MPH (10 knots; 5.1 m/s)
Visibility: 6 or more miles (10+ km)
Ceiling: 2100 feet AGL
Clouds: broken clouds at 2100 feet AGL
broken clouds at 3600 feet AGL
Weather: no significant weather observed at this time

METAR text: LFPG 141000Z 27010KT 240V310 9999 FEW031 BKN040 20/08 Q1018 TEMPO 4000 -RA BKN015
Conditions at: LFPG (CHARLES DE GAULL, FR) observed 1000 UTC 14 July 2020
Temperature: 20.0°C (68°F)
Dewpoint: 8.0°C (46°F) [RH = 46%]
Pressure (altimeter): 30.06 inches Hg (1018.0 mb)
Winds: from the W (270 degrees) at 12 MPH (10 knots; 5.1 m/s)
Visibility: 6 or more miles (10+ km)
Ceiling: 4000 feet AGL
Clouds: few clouds at 3100 feet AGL
broken clouds at 4000 feet AGL
Weather: no significant weather observed at this time

METAR text: LFPG 140930Z 26012KT 9999 BKN046 21/06 Q1018 TEMPO 4000 -RA BKN015
Conditions at: LFPG (CHARLES DE GAULL, FR) observed 0930 UTC 14 July 2020
Temperature: 21.0°C (70°F)
Dewpoint: 6.0°C (43°F) [RH = 38%]
Pressure (altimeter): 30.06 inches Hg (1018.0 mb)
Winds: from the W (260 degrees) at 14 MPH (12 knots; 6.2 m/s)
Visibility: 6 or more miles (10+ km)
Ceiling: 4600 feet AGL
Clouds: broken clouds at 4600 feet AGL
Weather: no significant weather observed at this time

METAR text: LFPG 140900Z 26010KT 230V290 CAVOK 21/08 Q1018 NOSIG
Conditions at: LFPG (CHARLES DE GAULL, FR) observed 0900 UTC 14 July 2020
Temperature: 21.0°C (70°F)
Dewpoint: 8.0°C (46°F) [RH = 43%]
Pressure (altimeter): 30.06 inches Hg (1018.0 mb)
Winds: from the W (260 degrees) at 12 MPH (10 knots; 5.1 m/s)
Visibility: 6 or more miles (10+ km)
Ceiling: ceiling and visibility are OK
Clouds: unknown
Weather: no significant weather observed at this time

METAR text: LFPG 140830Z 27007KT 240V300 CAVOK 20/09 Q1018 NOSIG
Conditions at: LFPG (CHARLES DE GAULL, FR) observed 0830 UTC 14 July 2020
Temperature: 20.0°C (68°F)
Dewpoint: 9.0°C (48°F) [RH = 49%]
Pressure (altimeter): 30.06 inches Hg (1018.0 mb)
Winds: from the W (270 degrees) at 8 MPH (7 knots; 3.6 m/s)
Visibility: 6 or more miles (10+ km)
Ceiling: ceiling and visibility are OK
Clouds: unknown
Weather: no significant weather observed at this time

METAR text: LFPG 140800Z 27007KT 240V300 CAVOK 19/09 Q1018 NOSIG
Conditions at: LFPG (CHARLES DE GAULL, FR) observed 0800 UTC 14 July 2020
Temperature: 19.0°C (66°F)
Dewpoint: 9.0°C (48°F) [RH = 52%]
Pressure (altimeter): 30.06 inches Hg (1018.0 mb)
Winds: from the W (270 degrees) at 8 MPH (7 knots; 3.6 m/s)
Visibility: 6 or more miles (10+ km)
Ceiling: ceiling and visibility are OK
Clouds: unknown
Weather: no significant weather observed at this time

METAR text: LFPG 140730Z 29007KT 260V320 CAVOK 19/08 Q1018 NOSIG
Conditions at: LFPG (CHARLES DE GAULL, FR) observed 0730 UTC 14 July 2020
Temperature: 19.0°C (66°F)
Dewpoint: 8.0°C (46°F) [RH = 49%]
Pressure (altimeter): 30.06 inches Hg (1018.0 mb)
Winds: from the WNW (290 degrees) at 8 MPH (7 knots; 3.6 m/s)
Visibility: 6 or more miles (10+ km)
Ceiling: ceiling and visibility are OK
Clouds: unknown
Weather: no significant weather observed at this time

METAR text: LFPG 140700Z 29005KT 250V320 CAVOK 17/08 Q1018 NOSIG
Conditions at: LFPG (CHARLES DE GAULL, FR) observed 0700 UTC 14 July 2020
Temperature: 17.0°C (63°F)
Dewpoint: 8.0°C (46°F) [RH = 55%]
Pressure (altimeter): 30.06 inches Hg (1018.0 mb)
Winds: from the WNW (290 degrees) at 6 MPH (5 knots; 2.6 m/s)
Visibility: 6 or more miles (10+ km)
Ceiling: ceiling and visibility are OK
Clouds: unknown
Weather: no significant weather observed at this time

METAR text: LFPG 140630Z 29004KT 260V320 CAVOK 17/08 Q1018 NOSIG
Conditions at: LFPG (CHARLES DE GAULL, FR) observed 0630 UTC 14 July 2020
Temperature: 17.0°C (63°F)
Dewpoint: 8.0°C (46°F) [RH = 55%]
Pressure (altimeter): 30.06 inches Hg (1018.0 mb)
Winds: from the WNW (290 degrees) at 5 MPH (4 knots; 2.1 m/s)
Visibility: 6 or more miles (10+ km)
Ceiling: ceiling and visibility are OK
Clouds: unknown
Weather: no significant weather observed at this time

METAR text: LFPG 140600Z 28004KT CAVOK 16/08 Q1018 NOSIG
Conditions at: LFPG (CHARLES DE GAULL, FR) observed 0600 UTC 14 July 2020
Temperature: 16.0°C (61°F)
Dewpoint: 8.0°C (46°F) [RH = 59%]
Pressure (altimeter): 30.06 inches Hg (1018.0 mb)
Winds: from the W (280 degrees) at 5 MPH (4 knots; 2.1 m/s)
Visibility: 6 or more miles (10+ km)
Ceiling: ceiling and visibility are OK
Clouds: unknown
Weather: no significant weather observed at this time

METAR text: LFPG 140530Z 26005KT CAVOK 15/08 Q1018 NOSIG
Conditions at: LFPG (CHARLES DE GAULL, FR) observed 0530 UTC 14 July 2020
Temperature: 15.0°C (59°F)
Dewpoint: 8.0°C (46°F) [RH = 63%]
Pressure (altimeter): 30.06 inches Hg (1018.0 mb)
Winds: from the W (260 degrees) at 6 MPH (5 knots; 2.6 m/s)
Visibility: 6 or more miles (10+ km)
Ceiling: ceiling and visibility are OK
Clouds: unknown
Weather: no significant weather observed at this time

METAR text: LFPG 140500Z 27002KT CAVOK 15/08 Q1018 NOSIG
Conditions at: LFPG (CHARLES DE GAULL, FR) observed 0500 UTC 14 July 2020
Temperature: 15.0°C (59°F)
Dewpoint: 8.0°C (46°F) [RH = 63%]
Pressure (altimeter): 30.06 inches Hg (1018.0 mb)
Winds: from the W (270 degrees) at 2 MPH (2 knots; 1.0 m/s)
Visibility: 6 or more miles (10+ km)
Ceiling: ceiling and visibility are OK
Clouds: unknown
Weather: no significant weather observed at this time

METAR text: LFPG 140430Z 24002KT CAVOK 15/08 Q1018 NOSIG
Conditions at: LFPG (CHARLES DE GAULL, FR) observed 0430 UTC 14 July 2020
Temperature: 15.0°C (59°F)
Dewpoint: 8.0°C (46°F) [RH = 63%]
Pressure (altimeter): 30.06 inches Hg (1018.0 mb)
Winds: from the WSW (240 degrees) at 2 MPH (2 knots; 1.0 m/s)
Visibility: 6 or more miles (10+ km)
Ceiling: ceiling and visibility are OK
Clouds: unknown
Weather: no significant weather observed at this time

METAR text: LFPG 140400Z 30002KT CAVOK 15/09 Q1018 NOSIG
Conditions at: LFPG (CHARLES DE GAULL, FR) observed 0400 UTC 14 July 2020
Temperature: 15.0°C (59°F)
Dewpoint: 9.0°C (48°F) [RH = 67%]
Pressure (altimeter): 30.06 inches Hg (1018.0 mb)
Winds: from the WNW (300 degrees) at 2 MPH (2 knots; 1.0 m/s)
Visibility: 6 or more miles (10+ km)
Ceiling: ceiling and visibility are OK
Clouds: unknown
Weather: no significant weather observed at this time

METAR text: LFPG 140330Z 31003KT CAVOK 15/09 Q1019 NOSIG
Conditions at: LFPG (CHARLES DE GAULL, FR) observed 0330 UTC 14 July 2020
Temperature: 15.0°C (59°F)
Dewpoint: 9.0°C (48°F) [RH = 67%]
Pressure (altimeter): 30.09 inches Hg (1019.0 mb)
Winds: from the NW (310 degrees) at 3 MPH (3 knots; 1.5 m/s)
Visibility: 6 or more miles (10+ km)
Ceiling: ceiling and visibility are OK
Clouds: unknown
Weather: no significant weather observed at this time

METAR text: LFPG 140300Z 33003KT CAVOK 15/09 Q1019 NOSIG
Conditions at: LFPG (CHARLES DE GAULL, FR) observed 0300 UTC 14 July 2020
Temperature: 15.0°C (59°F)
Dewpoint: 9.0°C (48°F) [RH = 67%]
Pressure (altimeter): 30.09 inches Hg (1019.0 mb)
Winds: from the NNW (330 degrees) at 3 MPH (3 knots; 1.5 m/s)
Visibility: 6 or more miles (10+ km)
Ceiling: ceiling and visibility are OK
Clouds: unknown
Weather: no significant weather observed at this time

METAR text: LFPG 140230Z 31003KT CAVOK 15/09 Q1019 NOSIG
Conditions at: LFPG (CHARLES DE GAULL, FR) observed 0230 UTC 14 July 2020
Temperature: 15.0°C (59°F)
Dewpoint: 9.0°C (48°F) [RH = 67%]
Pressure (altimeter): 30.09 inches Hg (1019.0 mb)
Winds: from the NW (310 degrees) at 3 MPH (3 knots; 1.5 m/s)
Visibility: 6 or more miles (10+ km)
Ceiling: ceiling and visibility are OK
Clouds: unknown
Weather: no significant weather observed at this time

METAR text: LFPG 140200Z 32003KT CAVOK 15/09 Q1019 NOSIG
Conditions at: LFPG (CHARLES DE GAULL, FR) observed 0200 UTC 14 July 2020
Temperature: 15.0°C (59°F)
Dewpoint: 9.0°C (48°F) [RH = 67%]
Pressure (altimeter): 30.09 inches Hg (1019.0 mb)
Winds: from the NW (320 degrees) at 3 MPH (3 knots; 1.5 m/s)
Visibility: 6 or more miles (10+ km)
Ceiling: ceiling and visibility are OK
Clouds: unknown
Weather: no significant weather observed at this time

METAR text: LFPG 140130Z 34005KT CAVOK 15/08 Q1019 NOSIG
Conditions at: LFPG (CHARLES DE GAULL, FR) observed 0130 UTC 14 July 2020
Temperature: 15.0°C (59°F)
Dewpoint: 8.0°C (46°F) [RH = 63%]
Pressure (altimeter): 30.09 inches Hg (1019.0 mb)
Winds: from the NNW (340 degrees) at 6 MPH (5 knots; 2.6 m/s)
Visibility: 6 or more miles (10+ km)
Ceiling: ceiling and visibility are OK
Clouds: unknown
Weather: no significant weather observed at this time

METAR text: LFPG 140100Z 35006KT CAVOK 16/08 Q1020 NOSIG
Conditions at: LFPG (CHARLES DE GAULL, FR) observed 0100 UTC 14 July 2020
Temperature: 16.0°C (61°F)
Dewpoint: 8.0°C (46°F) [RH = 59%]
Pressure (altimeter): 30.12 inches Hg (1020.0 mb)
Winds: from the N (350 degrees) at 7 MPH (6 knots; 3.1 m/s)
Visibility: 6 or more miles (10+ km)
Ceiling: ceiling and visibility are OK
Clouds: unknown
Weather: no significant weather observed at this time

METAR text: LFPG 140030Z 32005KT CAVOK 17/08 Q1020 NOSIG
Conditions at: LFPG (CHARLES DE GAULL, FR) observed 0030 UTC 14 July 2020
Temperature: 17.0°C (63°F)
Dewpoint: 8.0°C (46°F) [RH = 55%]
Pressure (altimeter): 30.12 inches Hg (1020.0 mb)
Winds: from the NW (320 degrees) at 6 MPH (5 knots; 2.6 m/s)
Visibility: 6 or more miles (10+ km)
Ceiling: ceiling and visibility are OK
Clouds: unknown
Weather: no significant weather observed at this time

Forecast for: LFPG (CHARLES DE GAULL, FR)
Text: TAF LFPG 151100Z 1512/1618 31008KT 9999 SCT025 TX22/1615Z TN14/1604Z
Forecast period: 1200 UTC 15 July 2020 to 1800 UTC 16 July 2020
Forecast type: FROM: standard forecast or significant change
Winds: from the NW (310 degrees) at 9 MPH (8 knots; 4.1 m/s)
Visibility: 6 or more miles 10+ km)
Ceiling: at least 12,000 feet AGL
Clouds: scattered clouds at 2500 feet AGL
Weather: no significant weather forecast for this period
Text: PROB30
Forecast period: 1200 to 1300 UTC 15 July 2020
Forecast type: TEMPORARY: The following changes expected for less than half the time period
Visibility: missing
Ceiling: at least 12,000 feet AGL
Clouds: few clouds at 2500 feet AGL
Weather: no significant weather forecast for this period
Text: TEMPO 1512/1513 FEW025TCU
Forecast period: 0600 to 0900 UTC 16 July 2020
Forecast type: TEMPORARY: The following changes expected for less than half the time period
Visibility: missing
Ceiling: 1200 feet AGL
Clouds: broken clouds at 1200 feet AGL
Weather: no significant weather forecast for this period